Time;durP1;ratioP1;P1;durP2;ratioP2;P2;SDS_P1;SDS_P2;PMS_P1;PMS_P2;Temp;Humidity;BMP_temperature;BMP_pressure;BME280_temperature;BME280_humidity;BME280_pressure;Samples;Min_cycle;Max_cycle;Signal;HPM_P1;HPM_P2
2022/03/03 00:00:27;;;;;;;26.98;14.57;;;-5.70;99.90;;;;;;5041457;28;20049;-81
2022/03/03 00:02:54;;;;;;;23.70;12.68;;;-5.80;99.90;;;;;;5043595;28;20052;-81
2022/03/03 00:05:21;;;;;;;23.58;13.18;;;-5.90;99.90;;;;;;5040106;28;20061;-80
2022/03/03 00:07:54;;;;;;;23.13;12.85;;;-6.00;99.90;;;;;;5039942;28;20053;-80
2022/03/03 00:10:21;;;;;;;21.35;12.25;;;-5.90;99.90;;;;;;5057584;28;20133;-80
2022/03/03 00:12:50;;;;;;;21.83;12.02;;;-5.90;99.90;;;;;;5039915;28;20049;-80
2022/03/03 00:15:16;;;;;;;25.48;12.82;;;-5.90;99.90;;;;;;5039745;28;20081;-80
2022/03/03 00:17:43;;;;;;;22.63;13.13;;;-5.90;99.90;;;;;;5035947;28;20735;-80
2022/03/03 00:20:11;;;;;;;23.10;13.15;;;-6.00;99.90;;;;;;5035974;28;20088;-80
2022/03/03 00:22:38;;;;;;;28.05;13.00;;;-6.10;99.90;;;;;;5035891;28;20486;-80
2022/03/03 00:25:06;;;;;;;21.02;12.45;;;-6.00;99.90;;;;;;5035950;28;20100;-80
2022/03/03 00:27:39;;;;;;;22.73;12.65;;;-5.90;99.90;;;;;;5036333;28;20053;-80
2022/03/03 00:30:06;;;;;;;22.60;12.70;;;-5.90;99.90;;;;;;5037382;28;20514;-80
2022/03/03 00:32:44;;;;;;;19.50;11.52;;;-5.90;99.90;;;;;;5035571;28;20053;-81
2022/03/03 00:35:11;;;;;;;22.60;12.45;;;-6.00;99.90;;;;;;5035990;28;20103;-81
2022/03/03 00:37:39;;;;;;;23.42;11.85;;;-6.00;99.90;;;;;;5035704;28;20085;-80
2022/03/03 00:40:07;;;;;;;16.88;10.85;;;-6.00;99.90;;;;;;5035984;28;20080;-82
2022/03/03 00:42:34;;;;;;;19.35;11.60;;;-6.00;99.90;;;;;;5035735;28;20076;-82
2022/03/03 00:45:01;;;;;;;23.05;11.80;;;-5.90;99.90;;;;;;5036174;28;20042;-80
2022/03/03 00:47:28;;;;;;;19.83;10.38;;;-6.00;99.90;;;;;;5035887;28;20045;-80
2022/03/03 00:50:01;;;;;;;20.52;12.70;;;-6.00;99.90;;;;;;5035706;28;20049;-81
2022/03/03 00:52:28;;;;;;;24.95;13.00;;;-6.00;99.90;;;;;;5035695;28;20080;-80
2022/03/03 00:54:55;;;;;;;23.80;12.90;;;-5.90;99.90;;;;;;5035833;28;20121;-80
2022/03/03 00:57:22;;;;;;;22.83;12.30;;;-5.80;99.90;;;;;;5036258;28;20088;-81
2022/03/03 00:59:51;;;;;;;23.38;12.55;;;-5.80;99.90;;;;;;5035844;28;20049;-80
2022/03/03 01:02:18;;;;;;;19.55;11.75;;;-5.90;99.90;;;;;;5037214;28;20055;-81
2022/03/03 01:04:45;;;;;;;21.63;12.52;;;-5.90;99.90;;;;;;5036626;28;20449;-80
2022/03/03 01:07:14;;;;;;;21.88;11.98;;;-5.90;99.90;;;;;;5037371;28;20088;-83
2022/03/03 01:09:40;;;;;;;20.83;12.10;;;-5.90;99.90;;;;;;5037039;28;20137;-81
2022/03/03 01:12:08;;;;;;;19.33;11.77;;;-6.00;99.90;;;;;;5037381;28;20069;-82
2022/03/03 01:14:36;;;;;;;19.52;12.13;;;-6.10;99.90;;;;;;5037263;28;20053;-82
2022/03/03 01:17:06;;;;;;;19.85;12.15;;;-6.10;99.90;;;;;;5038244;28;20067;-82
2022/03/03 01:19:32;;;;;;;19.02;11.75;;;-6.10;99.90;;;;;;5035663;28;20140;-82
2022/03/03 01:22:09;;;;;;;19.30;11.25;;;-6.20;99.90;;;;;;5036424;28;20046;-81
2022/03/03 01:24:36;;;;;;;21.80;11.30;;;-6.30;99.90;;;;;;5036222;28;20071;-82
2022/03/03 01:27:03;;;;;;;21.50;11.80;;;-6.40;99.90;;;;;;5035331;28;20140;-81
2022/03/03 01:29:31;;;;;;;19.60;11.02;;;-6.40;99.90;;;;;;5035319;28;20091;-81
2022/03/03 01:31:58;;;;;;;19.30;10.90;;;-6.30;99.90;;;;;;5035017;28;20490;-82
2022/03/03 01:34:29;;;;;;;21.85;12.18;;;-6.40;99.90;;;;;;5034662;28;20132;-81
2022/03/03 01:36:56;;;;;;;20.17;12.05;;;-6.40;99.90;;;;;;5035674;28;20093;-81
2022/03/03 01:39:28;;;;;;;22.17;11.88;;;-6.40;99.90;;;;;;5034400;28;20148;-81
2022/03/03 01:41:56;;;;;;;19.38;12.15;;;-6.50;99.90;;;;;;5033889;28;20399;-81
2022/03/03 01:44:26;;;;;;;23.58;12.07;;;-6.50;99.90;;;;;;5034230;28;20062;-81
2022/03/03 01:46:55;;;;;;;20.85;11.98;;;-6.50;99.90;;;;;;5034753;28;20080;-82
2022/03/03 01:49:23;;;;;;;23.63;11.77;;;-6.60;99.90;;;;;;5034805;28;20505;-81
2022/03/03 01:51:53;;;;;;;21.95;11.10;;;-6.60;99.90;;;;;;5034436;28;20065;-82
2022/03/03 01:54:20;;;;;;;19.48;11.07;;;-6.60;99.90;;;;;;5034447;28;20561;-81
2022/03/03 01:56:47;;;;;;;20.13;11.15;;;-6.60;99.90;;;;;;5034292;28;20132;-82
2022/03/03 01:59:15;;;;;;;24.83;12.55;;;-6.50;99.90;;;;;;5034083;28;20076;-81
2022/03/03 02:01:42;;;;;;;21.65;12.88;;;-6.60;99.90;;;;;;5034313;28;20053;-81
2022/03/03 02:04:10;;;;;;;20.42;12.38;;;-6.50;99.90;;;;;;5036133;28;20049;-81
2022/03/03 02:06:37;;;;;;;22.02;11.57;;;-6.50;99.90;;;;;;5034545;28;20088;-82
2022/03/03 02:09:07;;;;;;;24.67;12.20;;;-6.60;99.90;;;;;;5034362;28;20132;-82
2022/03/03 02:11:35;;;;;;;22.77;12.88;;;-6.50;99.90;;;;;;5034683;28;20057;-81
2022/03/03 02:14:03;;;;;;;23.42;13.20;;;-6.40;99.90;;;;;;5035458;28;20072;-82
2022/03/03 02:16:30;;;;;;;21.25;13.25;;;-6.30;99.90;;;;;;5035126;28;20085;-82
2022/03/03 02:18:58;;;;;;;20.85;12.18;;;-6.30;99.90;;;;;;5035315;28;20113;-81
2022/03/03 02:21:25;;;;;;;20.88;12.63;;;-6.20;99.90;;;;;;5034662;28;20132;-81
2022/03/03 02:23:58;;;;;;;25.02;13.50;;;-6.20;99.90;;;;;;5035242;28;20081;-81
2022/03/03 02:26:25;;;;;;;22.30;13.00;;;-6.10;99.90;;;;;;5035773;28;20045;-82
2022/03/03 02:28:53;;;;;;;23.17;12.90;;;-6.00;99.90;;;;;;5036338;28;20091;-82
2022/03/03 02:31:20;;;;;;;22.17;12.43;;;-6.00;99.90;;;;;;5036961;28;20145;-82
2022/03/03 02:33:54;;;;;;;19.80;11.48;;;-6.20;99.90;;;;;;5035075;28;20487;-81
2022/03/03 02:36:23;;;;;;;23.65;12.60;;;-6.20;99.90;;;;;;5034292;28;20128;-81
2022/03/03 02:38:52;;;;;;;21.55;13.32;;;-6.20;99.90;;;;;;5034002;28;20594;-81
2022/03/03 02:41:21;;;;;;;22.08;12.63;;;-6.30;99.90;;;;;;5033896;28;20133;-81
2022/03/03 02:43:48;;;;;;;22.02;12.13;;;-6.40;99.90;;;;;;5034239;28;20453;-82
2022/03/03 02:46:16;;;;;;;24.00;11.75;;;-6.50;99.90;;;;;;5033857;28;20049;-81
2022/03/03 02:48:43;;;;;;;17.40;11.30;;;-6.50;99.90;;;;;;5034243;28;20053;-81
2022/03/03 02:51:10;;;;;;;17.63;11.35;;;-6.60;99.90;;;;;;5033774;28;20510;-81
2022/03/03 02:53:37;;;;;;;22.30;11.80;;;-6.50;99.90;;;;;;5034125;28;20049;-82
2022/03/03 02:56:05;;;;;;;24.50;11.95;;;-6.60;99.90;;;;;;5033881;28;20081;-82
2022/03/03 02:58:33;;;;;;;23.90;13.48;;;-6.60;99.90;;;;;;5034200;28;20054;-81
2022/03/03 03:01:00;;;;;;;21.25;11.52;;;-6.70;99.90;;;;;;5033166;28;20513;-81
2022/03/03 03:03:28;;;;;;;22.20;11.80;;;-6.80;99.90;;;;;;5033879;28;20051;-81
2022/03/03 03:05:55;;;;;;;21.77;11.50;;;-6.70;99.90;;;;;;5035256;28;20128;-81
2022/03/03 03:08:23;;;;;;;19.42;11.48;;;-6.80;99.90;;;;;;5037703;28;20797;-81
2022/03/03 03:10:49;;;;;;;21.85;12.63;;;-6.70;99.90;;;;;;5038276;28;20478;-81
2022/03/03 03:13:16;;;;;;;21.98;12.60;;;-6.80;99.90;;;;;;5038026;28;20128;-81
2022/03/03 03:15:44;;;;;;;24.38;12.75;;;-6.80;99.90;;;;;;5038223;28;20057;-81
2022/03/03 03:18:15;;;;;;;25.63;12.85;;;-6.70;99.90;;;;;;5054666;28;20132;-81
2022/03/03 03:20:44;;;;;;;22.98;12.55;;;-6.70;99.90;;;;;;5037171;28;20461;-80
2022/03/03 03:23:14;;;;;;;23.65;13.18;;;-6.70;99.90;;;;;;5037208;28;20497;-81
2022/03/03 03:25:43;;;;;;;23.13;13.85;;;-6.70;99.90;;;;;;5036761;28;20042;-82
2022/03/03 03:28:11;;;;;;;27.58;14.90;;;-6.60;99.90;;;;;;5037630;28;20084;-81
2022/03/03 03:30:38;;;;;;;24.95;13.45;;;-6.50;99.90;;;;;;5038768;28;20156;-81
2022/03/03 03:33:05;;;;;;;22.63;13.18;;;-6.40;99.90;;;;;;5038692;28;20140;-82
2022/03/03 03:35:32;;;;;;;24.88;12.57;;;-6.40;99.90;;;;;;5038992;28;20088;-81
2022/03/03 03:37:58;;;;;;;22.55;13.48;;;-6.30;99.90;;;;;;5038611;28;20387;-82
2022/03/03 03:40:26;;;;;;;32.22;14.27;;;-6.30;99.90;;;;;;5039640;28;20081;-81
2022/03/03 03:42:53;;;;;;;22.73;13.13;;;-6.20;99.90;;;;;;5038766;28;20581;-81
2022/03/03 03:45:22;;;;;;;25.38;13.38;;;-6.20;99.90;;;;;;5039765;28;20442;-82
2022/03/03 03:47:49;;;;;;;23.77;12.18;;;-6.30;99.90;;;;;;5039125;28;20052;-81
2022/03/03 03:50:16;;;;;;;23.58;12.55;;;-6.30;99.90;;;;;;5037323;28;20071;-81
2022/03/03 03:52:43;;;;;;;24.65;12.60;;;-6.40;99.90;;;;;;5037856;28;20068;-81
2022/03/03 03:55:12;;;;;;;22.55;13.02;;;-6.60;99.90;;;;;;5036981;28;20055;-80
2022/03/03 03:57:40;;;;;;;31.15;12.52;;;-6.50;99.90;;;;;;5036957;28;20076;-80
2022/03/03 04:00:13;;;;;;;23.42;12.90;;;-6.60;99.90;;;;;;5036818;28;20140;-81
2022/03/03 04:02:42;;;;;;;24.88;12.55;;;-6.60;99.90;;;;;;5036429;28;20045;-81
2022/03/03 04:05:10;;;;;;;24.17;13.25;;;-6.60;99.90;;;;;;5038130;28;20398;-80
2022/03/03 04:07:39;;;;;;;24.33;12.57;;;-6.70;99.90;;;;;;5036395;28;20466;-80
2022/03/03 04:10:07;;;;;;;25.58;13.05;;;-6.70;99.90;;;;;;5036252;28;20045;-81
2022/03/03 04:12:34;;;;;;;21.70;12.13;;;-6.80;99.90;;;;;;5036603;28;20081;-80
2022/03/03 04:15:02;;;;;;;20.58;11.32;;;-7.00;99.90;;;;;;5038369;28;20450;-81
2022/03/03 04:17:30;;;;;;;21.50;11.50;;;-7.00;99.90;;;;;;5051725;28;20126;-80
2022/03/03 04:20:04;;;;;;;25.63;12.55;;;-7.10;99.90;;;;;;5040697;28;20056;-81
2022/03/03 04:22:31;;;;;;;23.35;11.45;;;-7.10;99.90;;;;;;5039589;28;20045;-80
2022/03/03 04:24:58;;;;;;;21.40;11.48;;;-7.10;99.90;;;;;;5057359;28;20132;-81
2022/03/03 04:27:26;;;;;;;22.50;12.57;;;-7.20;99.90;;;;;;5040115;28;20114;-81
2022/03/03 04:29:53;;;;;;;20.13;11.68;;;-7.20;99.90;;;;;;5039441;28;20095;-80
2022/03/03 04:32:21;;;;;;;21.60;11.25;;;-7.30;99.90;;;;;;5038858;28;20080;-80
2022/03/03 04:34:48;;;;;;;23.67;11.60;;;-7.30;99.90;;;;;;5040383;28;20127;-80
2022/03/03 04:37:16;;;;;;;27.25;13.18;;;-7.20;99.90;;;;;;5040167;28;20045;-80
2022/03/03 04:39:43;;;;;;;25.70;14.68;;;-7.30;99.90;;;;;;5040019;28;20083;-81
2022/03/03 04:42:10;;;;;;;31.25;16.08;;;-7.10;99.90;;;;;;5039879;28;20072;-81
2022/03/03 04:44:36;;;;;;;25.30;13.27;;;-7.10;99.90;;;;;;5040391;28;20045;-81
2022/03/03 04:47:03;;;;;;;23.45;12.70;;;-7.00;99.90;;;;;;5040973;28;20045;-81
2022/03/03 04:49:30;;;;;;;25.90;12.68;;;-7.00;99.90;;;;;;5040290;28;20091;-81
2022/03/03 04:51:57;;;;;;;21.63;12.93;;;-6.90;99.90;;;;;;5040449;28;20053;-81
2022/03/03 04:54:27;;;;;;;21.10;11.85;;;-7.00;99.90;;;;;;5040601;28;20085;-81
2022/03/03 04:56:55;;;;;;;28.38;11.98;;;-6.90;99.90;;;;;;5040691;28;20128;-81
2022/03/03 04:59:23;;;;;;;21.38;11.82;;;-6.90;99.90;;;;;;5041448;28;20056;-81
2022/03/03 05:01:51;;;;;;;21.58;11.98;;;-7.00;99.90;;;;;;5040519;28;20073;-80
2022/03/03 05:04:19;;;;;;;20.98;12.35;;;-7.00;99.90;;;;;;5039243;28;20045;-80
2022/03/03 05:06:47;;;;;;;19.60;11.35;;;-7.00;99.90;;;;;;5039275;28;20467;-80
2022/03/03 05:09:16;;;;;;;18.98;11.57;;;-7.00;99.90;;;;;;5038670;28;20094;-80
2022/03/03 05:11:43;;;;;;;18.67;11.23;;;-7.20;99.90;;;;;;5056971;28;20111;-81
2022/03/03 05:14:10;;;;;;;20.80;12.13;;;-7.20;99.90;;;;;;5038800;28;20127;-80
2022/03/03 05:16:38;;;;;;;22.70;13.05;;;-7.30;99.90;;;;;;5038902;28;20462;-81
2022/03/03 05:19:05;;;;;;;26.95;13.77;;;-7.50;99.90;;;;;;5056796;28;20049;-80
2022/03/03 05:21:32;;;;;;;19.70;11.23;;;-7.50;99.90;;;;;;5038488;28;20049;-83
2022/03/03 05:23:59;;;;;;;24.08;12.18;;;-7.50;99.90;;;;;;5038892;28;20401;-82
2022/03/03 05:26:27;;;;;;;25.67;12.65;;;-7.40;99.90;;;;;;5038476;28;20076;-82
2022/03/03 05:28:54;;;;;;;24.08;11.52;;;-7.50;99.90;;;;;;5056120;28;20045;-83
2022/03/03 05:31:20;;;;;;;26.77;12.65;;;-7.50;99.90;;;;;;5037778;28;20104;-83
2022/03/03 05:33:47;;;;;;;26.20;11.88;;;-7.40;99.90;;;;;;5056222;28;20053;-83
2022/03/03 05:36:14;;;;;;;26.95;14.32;;;-7.40;99.90;;;;;;5056217;28;20083;-82
2022/03/03 05:38:41;;;;;;;23.88;12.38;;;-7.40;99.90;;;;;;5055787;28;20048;-83
2022/03/03 05:41:08;;;;;;;27.73;12.52;;;-7.40;99.90;;;;;;5038302;28;20131;-83
2022/03/03 05:43:35;;;;;;;35.03;14.38;;;-7.50;99.90;;;;;;5037830;28;20074;-82
2022/03/03 05:46:03;;;;;;;20.50;11.70;;;-7.40;99.90;;;;;;5056006;28;20044;-83
2022/03/03 05:48:30;;;;;;;31.38;13.05;;;-7.40;99.90;;;;;;5038138;28;20114;-83
2022/03/03 05:50:57;;;;;;;23.60;12.02;;;-7.50;99.90;;;;;;5038074;28;20136;-83
2022/03/03 05:53:24;;;;;;;27.58;13.60;;;-7.50;99.90;;;;;;5039060;28;20136;-83
2022/03/03 05:55:58;;;;;;;26.00;14.05;;;-7.50;99.90;;;;;;5039563;28;20056;-82
2022/03/03 05:58:44;;;;;;;24.95;13.93;;;-7.60;99.90;;;;;;5057619;28;20081;-82
2022/03/03 06:01:12;;;;;;;26.88;13.70;;;-7.50;99.90;;;;;;5040382;28;20059;-81
2022/03/03 06:03:40;;;;;;;33.10;14.68;;;-7.50;99.90;;;;;;5040363;28;20056;-82
2022/03/03 06:06:34;;;;;;;26.58;13.93;;;-7.60;99.90;;;;;;5057784;28;20060;-82
2022/03/03 06:09:08;;;;;;;33.42;13.15;;;-7.60;99.90;;;;;;5040249;28;20053;-83
2022/03/03 06:11:47;;;;;;;26.85;12.65;;;-7.50;99.90;;;;;;5059054;28;20084;-82
2022/03/03 06:14:23;;;;;;;26.88;12.95;;;-7.50;99.90;;;;;;5059320;28;20457;-83
2022/03/03 06:16:50;;;;;;;27.55;13.15;;;-7.60;99.90;;;;;;5039271;28;20073;-82
2022/03/03 06:19:20;;;;;;;26.75;13.98;;;-7.60;99.90;;;;;;5054212;28;20524;-82
2022/03/03 06:21:48;;;;;;;31.63;14.45;;;-7.60;99.90;;;;;;5036572;28;20149;-82
2022/03/03 06:24:14;;;;;;;35.05;15.10;;;-7.50;99.90;;;;;;5036630;28;20049;-82
2022/03/03 06:26:42;;;;;;;30.35;15.68;;;-7.40;99.90;;;;;;5036240;28;20099;-82
2022/03/03 06:29:09;;;;;;;30.77;16.85;;;-7.40;99.90;;;;;;5035702;28;20128;-82
2022/03/03 06:31:36;;;;;;;31.63;16.00;;;-7.30;99.90;;;;;;5053899;28;20136;-82
2022/03/03 06:34:02;;;;;;;33.60;16.15;;;-7.30;99.90;;;;;;5037371;28;20124;-83
2022/03/03 06:36:30;;;;;;;29.48;16.38;;;-7.30;99.90;;;;;;5055337;28;20057;-82
2022/03/03 06:38:57;;;;;;;38.97;17.27;;;-7.20;99.90;;;;;;5037143;28;20128;-82
2022/03/03 06:41:25;;;;;;;31.23;16.05;;;-7.20;99.90;;;;;;5037422;28;20128;-82
2022/03/03 06:43:52;;;;;;;27.60;16.10;;;-7.00;99.90;;;;;;5036697;28;20045;-81
2022/03/03 06:46:21;;;;;;;34.10;16.10;;;-7.00;99.90;;;;;;5037402;28;20072;-82
2022/03/03 06:48:48;;;;;;;28.77;16.23;;;-6.90;99.90;;;;;;5037601;28;20044;-82
2022/03/03 06:51:15;;;;;;;33.40;16.20;;;-6.80;99.90;;;;;;5037039;28;20136;-82
2022/03/03 06:53:45;;;;;;;27.80;15.25;;;-6.80;99.90;;;;;;5037371;28;20227;-82
2022/03/03 06:56:13;;;;;;;41.08;20.23;;;-6.70;99.90;;;;;;5037397;28;20057;-82
2022/03/03 06:58:39;;;;;;;29.75;15.32;;;-6.60;99.90;;;;;;5037603;28;20044;-82
2022/03/03 07:01:12;;;;;;;34.92;15.32;;;-6.50;99.90;;;;;;5037451;28;20516;-82
2022/03/03 07:03:41;;;;;;;32.13;15.93;;;-6.50;99.90;;;;;;5037289;28;20132;-83
2022/03/03 07:06:08;;;;;;;30.30;13.82;;;-6.40;99.90;;;;;;5055571;28;20091;-82
2022/03/03 07:08:35;;;;;;;28.85;13.57;;;-6.30;99.90;;;;;;5041429;28;20105;-81
2022/03/03 07:11:02;;;;;;;23.50;14.05;;;-6.40;99.90;;;;;;5059110;28;20053;-82
2022/03/03 07:13:29;;;;;;;30.25;14.52;;;-6.30;99.90;;;;;;5042662;28;20076;-83
2022/03/03 07:16:21;;;;;;;24.23;14.30;;;-6.20;99.90;;;;;;5042173;28;20045;-81
2022/03/03 07:18:52;;;;;;;25.45;14.48;;;-6.10;99.90;;;;;;5039274;28;20121;-83
2022/03/03 07:21:24;;;;;;;33.70;15.93;;;-6.10;99.90;;;;;;5057140;28;20087;-82
2022/03/03 07:24:03;;;;;;;66.60;28.52;;;-6.10;99.90;;;;;;5039643;28;20109;-83
2022/03/03 07:26:31;;;;;;;39.28;18.75;;;-6.10;99.90;;;;;;5058658;28;20045;-83
2022/03/03 07:29:01;;;;;;;45.85;20.67;;;-6.10;99.90;;;;;;5058704;28;20077;-83
2022/03/03 07:31:31;;;;;;;51.95;18.60;;;-6.10;99.90;;;;;;5038797;28;20079;-83
2022/03/03 07:34:04;;;;;;;43.58;18.30;;;-6.10;99.90;;;;;;5054994;28;20143;-82
2022/03/03 07:36:37;;;;;;;60.17;19.30;;;-6.00;99.90;;;;;;5037596;28;20131;-82
2022/03/03 07:39:10;;;;;;;42.85;17.20;;;-6.00;99.90;;;;;;5046304;28;20044;-82
2022/03/03 07:41:36;;;;;;;54.53;18.08;;;-5.80;99.90;;;;;;5046174;28;20571;-81
2022/03/03 07:44:04;;;;;;;67.72;25.88;;;-5.70;99.90;;;;;;5044016;28;20042;-80
2022/03/03 07:46:31;;;;;;;71.20;26.27;;;-5.40;99.90;;;;;;5045553;28;20045;-80
2022/03/03 07:49:00;;;;;;;75.55;28.33;;;-4.50;99.90;;;;;;5027450;28;20065;-80
2022/03/03 07:51:27;;;;;;;68.43;29.58;;;-3.20;99.90;;;;;;5044178;28;20077;-81
2022/03/03 07:53:54;;;;;;;64.65;30.73;;;-1.60;99.90;;;;;;5046117;28;20055;-81
2022/03/03 07:56:32;;;;;;;56.95;25.95;;;-1.30;99.90;;;;;;5054266;28;20139;-81
2022/03/03 07:59:04;;;;;;;44.67;22.55;;;-0.40;99.90;;;;;;5060441;28;20454;-82
2022/03/03 08:01:32;;;;;;;49.33;23.05;;;0.10;99.90;;;;;;5059013;28;20084;-83
2022/03/03 08:04:01;;;;;;;41.97;16.88;;;0.90;99.90;;;;;;5058922;28;20521;-83
2022/03/03 08:06:30;;;;;;;32.42;11.20;;;1.80;99.90;;;;;;5059646;28;20045;-83
2022/03/03 08:09:01;;;;;;;28.30;11.18;;;2.30;99.90;;;;;;5061519;28;20049;-84
2022/03/03 08:11:29;;;;;;;24.48;11.85;;;3.30;99.90;;;;;;5060820;28;20073;-84
2022/03/03 08:13:56;;;;;;;31.02;10.07;;;4.20;99.90;;;;;;5063571;28;20402;-84
2022/03/03 08:16:24;;;;;;;28.95;10.27;;;4.80;99.90;;;;;;5061605;28;20053;-84
2022/03/03 08:19:05;;;;;;;27.58;9.60;;;5.20;99.90;;;;;;5062772;28;20056;-85
2022/03/03 08:21:34;;;;;;;26.20;10.05;;;5.30;99.90;;;;;;5061712;28;20071;-84
2022/03/03 08:24:02;;;;;;;57.00;11.82;;;6.00;99.90;;;;;;5062563;28;20115;-84
2022/03/03 08:26:30;;;;;;;40.72;10.73;;;7.30;99.90;;;;;;5063056;28;20041;-83
2022/03/03 08:28:56;;;;;;;49.33;10.32;;;8.30;96.10;;;;;;5064643;28;20479;-84
2022/03/03 08:31:37;;;;;;;65.57;30.60;;;9.60;93.60;;;;;;5053649;28;20084;-84
2022/03/03 08:34:18;;;;;;;16.80;9.07;;;9.90;85.70;;;;;;5048640;28;20045;-84
2022/03/03 08:36:54;;;;;;;21.65;9.25;;;10.70;82.70;;;;;;5043299;28;20046;-84
2022/03/03 08:39:26;;;;;;;36.28;9.82;;;11.40;77.00;;;;;;5045129;28;20084;-83
2022/03/03 08:41:59;;;;;;;23.03;7.90;;;11.40;75.70;;;;;;5044101;28;20450;-84
2022/03/03 08:44:50;;;;;;;16.70;7.75;;;11.90;72.00;;;;;;5043061;28;20050;-83
2022/03/03 08:47:17;;;;;;;19.92;8.80;;;12.00;66.90;;;;;;5039833;28;20042;-83
2022/03/03 08:49:46;;;;;;;13.45;7.95;;;11.10;67.10;;;;;;5040733;28;20056;-83
2022/03/03 08:52:13;;;;;;;19.38;8.52;;;11.20;68.40;;;;;;5041580;28;20049;-83
2022/03/03 08:54:45;;;;;;;19.63;8.65;;;11.30;66.00;;;;;;5040302;28;20498;-83
2022/03/03 08:57:12;;;;;;;16.80;9.20;;;11.20;65.90;;;;;;5040579;28;20088;-83
2022/03/03 08:59:40;;;;;;;17.85;8.65;;;11.80;66.20;;;;;;5040033;28;20084;-83
2022/03/03 09:02:06;;;;;;;44.17;9.45;;;11.20;68.10;;;;;;5039638;28;20053;-82
2022/03/03 09:04:33;;;;;;;22.55;8.82;;;11.60;67.90;;;;;;5038629;28;20069;-83
2022/03/03 09:07:01;;;;;;;13.57;8.75;;;12.80;65.80;;;;;;5039572;28;20045;-83
2022/03/03 09:09:28;;;;;;;21.80;9.20;;;13.30;65.20;;;;;;5041397;28;20068;-83
2022/03/03 09:12:04;;;;;;;15.95;8.52;;;13.20;64.50;;;;;;5039757;28;20490;-83
2022/03/03 09:14:30;;;;;;;15.95;9.38;;;14.30;60.90;;;;;;5039813;28;20076;-83
2022/03/03 09:16:57;;;;;;;13.00;8.75;;;13.90;61.20;;;;;;5039570;28;20077;-83
2022/03/03 09:19:26;;;;;;;30.17;10.68;;;15.00;60.80;;;;;;5039943;28;20137;-83
2022/03/03 09:21:53;;;;;;;18.33;9.05;;;15.00;57.50;;;;;;5039609;28;20073;-84
2022/03/03 09:24:21;;;;;;;23.55;9.55;;;16.20;56.50;;;;;;5040109;28;20136;-83
2022/03/03 09:26:48;;;;;;;26.88;9.23;;;15.00;57.00;;;;;;5039676;28;20050;-83
2022/03/03 09:29:17;;;;;;;27.25;9.40;;;14.50;56.10;;;;;;5040401;28;20164;-83
2022/03/03 09:31:45;;;;;;;22.67;10.15;;;14.20;56.70;;;;;;5039775;28;20128;-83
2022/03/03 09:34:12;;;;;;;25.67;9.35;;;14.20;59.10;;;;;;5040491;28;20049;-83
2022/03/03 09:36:39;;;;;;;29.42;10.60;;;14.70;57.40;;;;;;5039789;28;20081;-83
2022/03/03 09:39:12;;;;;;;16.48;9.77;;;15.60;57.40;;;;;;5039892;28;20113;-84
2022/03/03 09:41:39;;;;;;;17.20;10.03;;;15.40;56.80;;;;;;5039719;28;20073;-84
2022/03/03 09:44:05;;;;;;;30.83;10.88;;;17.00;54.30;;;;;;5040095;28;20129;-83
2022/03/03 09:46:36;;;;;;;27.70;10.52;;;18.20;51.90;;;;;;5041209;28;20416;-82
2022/03/03 09:49:06;;;;;;;18.42;10.30;;;17.20;52.50;;;;;;5040144;28;20391;-84
2022/03/03 09:51:33;;;;;;;100.75;67.88;;;16.40;52.90;;;;;;5040656;28;20069;-83
2022/03/03 09:53:59;;;;;;;21.90;15.32;;;16.30;53.00;;;;;;5040136;28;20144;-82
2022/03/03 09:56:26;;;;;;;14.73;11.30;;;15.40;52.90;;;;;;5042680;28;20096;-83
2022/03/03 09:58:53;;;;;;;16.58;10.98;;;14.80;55.00;;;;;;5042650;28;20128;-82
2022/03/03 10:01:20;;;;;;;30.58;13.10;;;14.70;54.80;;;;;;5038615;28;20113;-81
2022/03/03 10:03:49;;;;;;;29.83;12.50;;;15.80;56.00;;;;;;5037177;28;20042;-81
2022/03/03 10:06:21;;;;;;;19.17;12.45;;;18.10;53.00;;;;;;5037533;28;20132;-81
2022/03/03 10:08:50;;;;;;;17.85;11.93;;;19.00;50.60;;;;;;5037206;28;20053;-81
2022/03/03 10:11:17;;;;;;;67.40;45.78;;;20.20;47.60;;;;;;5036910;28;20077;-85
2022/03/03 10:13:47;;;;;;;15.45;11.93;;;19.90;46.60;;;;;;5036786;28;20056;-85
2022/03/03 10:16:26;;;;;;;17.23;11.70;;;18.70;46.60;;;;;;5036146;28;20487;-85
2022/03/03 10:19:03;;;;;;;21.73;13.40;;;19.50;48.00;;;;;;5036551;28;20049;-86
2022/03/03 10:21:33;;;;;;;21.85;13.65;;;20.20;45.80;;;;;;5037110;28;20053;-85
2022/03/03 10:24:13;;;;;;;15.88;12.52;;;18.00;46.60;;;;;;5044307;28;20608;-86
2022/03/03 10:26:40;;;;;;;26.35;21.67;;;17.20;46.90;;;;;;5048550;28;20065;-85
2022/03/03 10:29:18;;;;;;;49.75;22.13;;;16.60;48.20;;;;;;5058172;28;20056;-85
2022/03/03 10:31:47;;;;;;;42.38;32.42;;;15.50;50.00;;;;;;5057131;28;20053;-86
2022/03/03 10:34:19;;;;;;;23.88;15.77;;;14.80;52.00;;;;;;5058116;28;20637;-85
2022/03/03 10:37:09;;;;;;;18.95;13.30;;;14.00;53.00;;;;;;5056910;28;20143;-85
2022/03/03 10:39:45;;;;;;;16.77;12.38;;;13.20;56.00;;;;;;5040909;28;20076;-81
2022/03/03 10:42:17;;;;;;;19.10;13.40;;;14.40;54.70;;;;;;5031700;28;20383;-82
2022/03/03 10:44:46;;;;;;;19.00;12.18;;;15.20;52.80;;;;;;5049546;28;20065;-81
2022/03/03 10:47:15;;;;;;;18.08;11.95;;;15.30;52.20;;;;;;5047491;28;20359;-82
2022/03/03 10:49:45;;;;;;;21.75;12.32;;;15.20;51.20;;;;;;5046130;28;20050;-81
2022/03/03 10:52:25;;;;;;;46.47;14.15;;;14.40;53.10;;;;;;5051166;28;20073;-81
2022/03/03 10:54:55;;;;;;;27.35;13.25;;;15.80;52.10;;;;;;5048869;28;20490;-86
2022/03/03 10:57:38;;;;;;;36.72;13.23;;;15.00;52.40;;;;;;5047491;28;20071;-85
2022/03/03 11:00:19;;;;;;;19.73;12.45;;;14.50;53.50;;;;;;5047935;28;20068;-86
2022/03/03 11:02:51;;;;;;;29.90;13.02;;;13.50;54.60;;;;;;5048454;28;20536;-86
2022/03/03 11:05:21;;;;;;;19.30;12.17;;;15.70;53.00;;;;;;5049511;28;20132;-82
2022/03/03 11:07:54;;;;;;;36.08;14.63;;;15.50;53.00;;;;;;5052049;28;20302;-81
2022/03/03 11:10:25;;;;;;;20.50;12.73;;;16.00;50.90;;;;;;5051516;28;20045;-82
2022/03/03 11:12:53;;;;;;;33.63;15.00;;;15.90;51.50;;;;;;5049519;28;20053;-83
2022/03/03 11:15:23;;;;;;;16.52;12.10;;;16.20;51.00;;;;;;5057247;28;20077;-83
2022/03/03 11:17:50;;;;;;;32.63;20.83;;;16.20;49.80;;;;;;5045212;28;20119;-82
2022/03/03 11:20:23;;;;;;;25.60;13.85;;;15.30;51.00;;;;;;5036766;28;20396;-81
2022/03/03 11:22:54;;;;;;;24.70;16.05;;;15.30;51.50;;;;;;5036189;28;20465;-80
2022/03/03 11:25:32;;;;;;;21.23;14.05;;;15.70;51.10;;;;;;5051359;28;20049;-82
2022/03/03 11:28:09;;;;;;;22.00;12.55;;;16.50;49.60;;;;;;5055034;28;20132;-81
2022/03/03 11:30:36;;;;;;;16.00;12.25;;;17.10;48.90;;;;;;5041554;28;20064;-81
2022/03/03 11:33:18;;;;;;;17.40;12.75;;;17.10;47.20;;;;;;5056766;28;20128;-81
2022/03/03 11:35:53;;;;;;;31.92;13.15;;;16.60;48.10;;;;;;5041201;28;20136;-81
2022/03/03 11:38:24;;;;;;;18.05;11.98;;;16.10;49.60;;;;;;5056841;28;20076;-84
2022/03/03 11:41:00;;;;;;;21.20;14.13;;;16.20;49.10;;;;;;5056545;28;20562;-84
2022/03/03 11:43:28;;;;;;;20.45;14.32;;;15.20;49.70;;;;;;5057629;28;20084;-83
2022/03/03 11:45:57;;;;;;;16.33;12.75;;;14.70;51.70;;;;;;5056626;28;20451;-84
2022/03/03 11:48:35;;;;;;;16.88;12.88;;;15.70;50.70;;;;;;5056545;28;20084;-83
2022/03/03 11:51:32;;;;;;;19.15;12.88;;;14.50;51.10;;;;;;5057808;28;20449;-83
2022/03/03 11:54:30;;;;;;;19.83;13.13;;;15.80;50.50;;;;;;5053866;28;20049;-84
2022/03/03 11:57:03;;;;;;;20.88;12.68;;;15.30;49.70;;;;;;5057884;28;20050;-84
2022/03/03 11:59:41;;;;;;;17.27;12.37;;;14.60;50.80;;;;;;5040117;28;20045;-83
2022/03/03 12:02:09;;;;;;;20.10;14.77;;;14.30;51.20;;;;;;5056880;28;20280;-84
2022/03/03 12:04:37;;;;;;;16.25;12.77;;;14.30;52.70;;;;;;5042522;28;20045;-84
2022/03/03 12:07:25;;;;;;;15.38;11.57;;;14.90;50.50;;;;;;5056078;28;20045;-82
2022/03/03 12:09:51;;;;;;;14.52;11.68;;;15.20;49.20;;;;;;5040527;28;20105;-85
2022/03/03 12:12:19;;;;;;;15.40;11.75;;;14.40;47.90;;;;;;5057613;28;20105;-84
2022/03/03 12:14:53;;;;;;;15.07;11.38;;;14.00;48.90;;;;;;5058784;28;20049;-86
2022/03/03 12:17:42;;;;;;;16.27;11.10;;;13.80;48.80;;;;;;5039725;28;20057;-87
2022/03/03 12:20:24;;;;;;;15.70;11.55;;;13.30;48.40;;;;;;5054984;28;20055;-80
2022/03/03 12:23:18;;;;;;;18.30;10.93;;;14.10;49.10;;;;;;5035470;28;20060;-81
2022/03/03 12:25:51;;;;;;;22.08;11.35;;;13.80;48.50;;;;;;5053631;28;20108;-80
2022/03/03 12:28:25;;;;;;;44.93;23.00;;;13.10;49.00;;;;;;5038875;28;20045;-81
2022/03/03 12:30:54;;;;;;;49.53;30.73;;;13.10;48.50;;;;;;5054896;28;20053;-82
2022/03/03 12:33:23;;;;;;;29.45;20.40;;;12.80;50.10;;;;;;5055725;28;20058;-86
2022/03/03 12:35:52;;;;;;;21.10;13.73;;;13.10;51.40;;;;;;5041255;28;20105;-86
2022/03/03 12:38:19;;;;;;;21.67;12.40;;;13.00;51.50;;;;;;5041150;28;20057;-81
2022/03/03 12:40:45;;;;;;;19.67;12.18;;;13.50;51.00;;;;;;5057955;28;20128;-85